Tuba City, Arizona
Current Conditions -  °F | °C
As of 2:54 PM on Wednesday 22 Oct 2014 (Local Time) from KGCN Reporting Station
Clear Clear  
Wind Chill: 67°   Ceiling: Unl
Heat Index: 67°   Visibility: 10mi
Dew Point: 28°   Wind: 8mph
Humidity: 23%   Direction: 270°W
Pressure: 30.23"   Gusts: 17mph
Location:  36.13°N, 111.23°W
Report Text: KGCN 222054Z 27007G15KT 10SM CLR 19/M02 A3023 RMK AO2 SLP179 T01941022 58008
Loading
Personal Weather Stations






























Interactive Weather Map
Tropical Storm Tracking
New forecast layout! Learn more

10-Day Weather Forecast

Advertisements
Track Severe Weather on mobile